sensor_id;sensor_type;location;lat;lon;timestamp;P1;durP1;ratioP1;P2;durP2;ratioP2
25615;SDS011;13482;48.234;13.006;2022-10-31T00:01:21;5.57;;;2.83;;
25615;SDS011;13482;48.234;13.006;2022-10-31T00:03:55;5.80;;;2.50;;
25615;SDS011;13482;48.234;13.006;2022-10-31T00:06:22;4.43;;;2.70;;
25615;SDS011;13482;48.234;13.006;2022-10-31T00:08:57;4.85;;;2.67;;
25615;SDS011;13482;48.234;13.006;2022-10-31T00:11:26;5.18;;;2.58;;
25615;SDS011;13482;48.234;13.006;2022-10-31T00:13:54;5.07;;;2.67;;
25615;SDS011;13482;48.234;13.006;2022-10-31T00:16:23;4.13;;;2.90;;
25615;SDS011;13482;48.234;13.006;2022-10-31T00:18:52;5.80;;;3.00;;
25615;SDS011;13482;48.234;13.006;2022-10-31T00:21:25;6.50;;;2.80;;
25615;SDS011;13482;48.234;13.006;2022-10-31T00:23:54;4.88;;;2.50;;
25615;SDS011;13482;48.234;13.006;2022-10-31T00:26:21;3.67;;;2.47;;
25615;SDS011;13482;48.234;13.006;2022-10-31T00:28:48;6.13;;;2.53;;
25615;SDS011;13482;48.234;13.006;2022-10-31T00:31:15;4.78;;;2.65;;
25615;SDS011;13482;48.234;13.006;2022-10-31T00:33:43;4.63;;;2.65;;
25615;SDS011;13482;48.234;13.006;2022-10-31T00:36:12;5.20;;;2.67;;
25615;SDS011;13482;48.234;13.006;2022-10-31T00:38:42;5.45;;;2.47;;
25615;SDS011;13482;48.234;13.006;2022-10-31T00:41:10;6.53;;;2.40;;
25615;SDS011;13482;48.234;13.006;2022-10-31T00:43:39;3.72;;;2.30;;
25615;SDS011;13482;48.234;13.006;2022-10-31T00:46:06;5.38;;;3.03;;
25615;SDS011;13482;48.234;13.006;2022-10-31T00:48:33;4.68;;;2.53;;
25615;SDS011;13482;48.234;13.006;2022-10-31T00:51:00;5.00;;;2.63;;
25615;SDS011;13482;48.234;13.006;2022-10-31T00:53:28;6.57;;;3.03;;
25615;SDS011;13482;48.234;13.006;2022-10-31T00:55:55;6.53;;;2.70;;
25615;SDS011;13482;48.234;13.006;2022-10-31T00:58:22;4.72;;;2.70;;
25615;SDS011;13482;48.234;13.006;2022-10-31T01:00:49;5.35;;;2.67;;
25615;SDS011;13482;48.234;13.006;2022-10-31T01:03:26;3.28;;;2.25;;
25615;SDS011;13482;48.234;13.006;2022-10-31T01:08:34;5.43;;;2.97;;
25615;SDS011;13482;48.234;13.006;2022-10-31T01:11:16;4.45;;;2.42;;
25615;SDS011;13482;48.234;13.006;2022-10-31T01:13:47;4.50;;;2.70;;
25615;SDS011;13482;48.234;13.006;2022-10-31T01:16:18;6.00;;;2.60;;
25615;SDS011;13482;48.234;13.006;2022-10-31T01:18:48;4.63;;;2.33;;
25615;SDS011;13482;48.234;13.006;2022-10-31T01:21:17;3.83;;;2.28;;
25615;SDS011;13482;48.234;13.006;2022-10-31T01:23:53;3.58;;;2.22;;
25615;SDS011;13482;48.234;13.006;2022-10-31T01:26:22;5.53;;;2.50;;
25615;SDS011;13482;48.234;13.006;2022-10-31T01:28:53;3.13;;;2.10;;
25615;SDS011;13482;48.234;13.006;2022-10-31T01:31:25;2.90;;;1.93;;
25615;SDS011;13482;48.234;13.006;2022-10-31T01:33:58;3.40;;;1.98;;
25615;SDS011;13482;48.234;13.006;2022-10-31T01:38:59;4.18;;;2.17;;
25615;SDS011;13482;48.234;13.006;2022-10-31T01:41:34;3.72;;;2.00;;
25615;SDS011;13482;48.234;13.006;2022-10-31T01:46:46;3.58;;;1.92;;
25615;SDS011;13482;48.234;13.006;2022-10-31T01:52:23;3.30;;;1.90;;
25615;SDS011;13482;48.234;13.006;2022-10-31T01:55:00;2.72;;;1.90;;
25615;SDS011;13482;48.234;13.006;2022-10-31T01:57:34;4.35;;;2.03;;
25615;SDS011;13482;48.234;13.006;2022-10-31T02:02:35;2.80;;;1.88;;
25615;SDS011;13482;48.234;13.006;2022-10-31T02:05:04;2.60;;;2.00;;
25615;SDS011;13482;48.234;13.006;2022-10-31T02:07:51;4.03;;;1.88;;
25615;SDS011;13482;48.234;13.006;2022-10-31T02:10:56;4.13;;;1.80;;
25615;SDS011;13482;48.234;13.006;2022-10-31T02:13:24;2.60;;;1.73;;
25615;SDS011;13482;48.234;13.006;2022-10-31T02:15:53;3.17;;;2.15;;
25615;SDS011;13482;48.234;13.006;2022-10-31T02:18:24;6.38;;;2.35;;
25615;SDS011;13482;48.234;13.006;2022-10-31T02:30:21;2.47;;;1.90;;
25615;SDS011;13482;48.234;13.006;2022-10-31T02:35:25;3.35;;;2.03;;
25615;SDS011;13482;48.234;13.006;2022-10-31T02:41:49;3.45;;;1.42;;
25615;SDS011;13482;48.234;13.006;2022-10-31T02:47:28;3.53;;;1.77;;
25615;SDS011;13482;48.234;13.006;2022-10-31T02:50:07;5.30;;;2.00;;
25615;SDS011;13482;48.234;13.006;2022-10-31T02:52:40;3.10;;;1.70;;
25615;SDS011;13482;48.234;13.006;2022-10-31T02:58:01;2.60;;;1.77;;
25615;SDS011;13482;48.234;13.006;2022-10-31T03:01:00;2.97;;;1.83;;
25615;SDS011;13482;48.234;13.006;2022-10-31T03:03:36;2.40;;;1.70;;
25615;SDS011;13482;48.234;13.006;2022-10-31T03:16:09;3.17;;;1.85;;
25615;SDS011;13482;48.234;13.006;2022-10-31T03:19:15;3.53;;;1.88;;
25615;SDS011;13482;48.234;13.006;2022-10-31T03:22:04;4.93;;;1.95;;
25615;SDS011;13482;48.234;13.006;2022-10-31T03:24:46;3.20;;;1.83;;
25615;SDS011;13482;48.234;13.006;2022-10-31T03:27:18;2.75;;;1.75;;
25615;SDS011;13482;48.234;13.006;2022-10-31T03:29:55;3.83;;;1.70;;
25615;SDS011;13482;48.234;13.006;2022-10-31T03:32:31;3.08;;;2.10;;
25615;SDS011;13482;48.234;13.006;2022-10-31T03:35:17;2.63;;;1.70;;
25615;SDS011;13482;48.234;13.006;2022-10-31T03:37:47;3.45;;;1.80;;
25615;SDS011;13482;48.234;13.006;2022-10-31T03:40:19;3.45;;;1.60;;
25615;SDS011;13482;48.234;13.006;2022-10-31T03:42:51;3.92;;;1.73;;
25615;SDS011;13482;48.234;13.006;2022-10-31T03:45:28;2.85;;;1.70;;
25615;SDS011;13482;48.234;13.006;2022-10-31T03:48:00;2.78;;;1.77;;
25615;SDS011;13482;48.234;13.006;2022-10-31T03:50:30;2.88;;;1.58;;
25615;SDS011;13482;48.234;13.006;2022-10-31T03:53:13;4.03;;;1.60;;
25615;SDS011;13482;48.234;13.006;2022-10-31T03:55:59;3.15;;;1.70;;
25615;SDS011;13482;48.234;13.006;2022-10-31T03:58:56;3.17;;;1.52;;
25615;SDS011;13482;48.234;13.006;2022-10-31T04:01:46;2.80;;;1.55;;
25615;SDS011;13482;48.234;13.006;2022-10-31T04:04:19;3.92;;;1.80;;
25615;SDS011;13482;48.234;13.006;2022-10-31T04:06:47;4.18;;;2.05;;
25615;SDS011;13482;48.234;13.006;2022-10-31T04:09:16;3.95;;;2.05;;
25615;SDS011;13482;48.234;13.006;2022-10-31T04:11:48;4.40;;;1.75;;
25615;SDS011;13482;48.234;13.006;2022-10-31T04:14:18;3.35;;;1.55;;
25615;SDS011;13482;48.234;13.006;2022-10-31T04:16:46;4.07;;;2.10;;
25615;SDS011;13482;48.234;13.006;2022-10-31T04:19:14;3.15;;;1.90;;
25615;SDS011;13482;48.234;13.006;2022-10-31T04:21:41;2.95;;;1.95;;
25615;SDS011;13482;48.234;13.006;2022-10-31T04:24:09;2.97;;;1.60;;
25615;SDS011;13482;48.234;13.006;2022-10-31T04:26:37;3.22;;;1.80;;
25615;SDS011;13482;48.234;13.006;2022-10-31T04:29:04;2.58;;;1.60;;
25615;SDS011;13482;48.234;13.006;2022-10-31T04:31:31;3.53;;;1.50;;
25615;SDS011;13482;48.234;13.006;2022-10-31T04:33:58;5.40;;;1.60;;
25615;SDS011;13482;48.234;13.006;2022-10-31T04:36:25;4.22;;;1.48;;
25615;SDS011;13482;48.234;13.006;2022-10-31T04:38:53;2.80;;;1.80;;
25615;SDS011;13482;48.234;13.006;2022-10-31T04:41:20;2.92;;;1.85;;
25615;SDS011;13482;48.234;13.006;2022-10-31T04:43:47;2.75;;;1.48;;
25615;SDS011;13482;48.234;13.006;2022-10-31T04:46:14;2.78;;;1.70;;
25615;SDS011;13482;48.234;13.006;2022-10-31T04:48:41;3.90;;;1.83;;
25615;SDS011;13482;48.234;13.006;2022-10-31T04:51:09;3.13;;;1.90;;
25615;SDS011;13482;48.234;13.006;2022-10-31T04:53:36;2.38;;;1.60;;
25615;SDS011;13482;48.234;13.006;2022-10-31T04:56:04;2.13;;;1.58;;
25615;SDS011;13482;48.234;13.006;2022-10-31T04:58:32;2.15;;;1.35;;
25615;SDS011;13482;48.234;13.006;2022-10-31T05:00:59;3.13;;;1.80;;
25615;SDS011;13482;48.234;13.006;2022-10-31T05:03:26;2.42;;;1.60;;
25615;SDS011;13482;48.234;13.006;2022-10-31T05:05:53;3.95;;;1.70;;
25615;SDS011;13482;48.234;13.006;2022-10-31T05:08:20;3.05;;;1.70;;
25615;SDS011;13482;48.234;13.006;2022-10-31T05:10:47;3.10;;;1.60;;
25615;SDS011;13482;48.234;13.006;2022-10-31T05:13:15;2.30;;;1.60;;
25615;SDS011;13482;48.234;13.006;2022-10-31T05:15:42;3.15;;;1.77;;
25615;SDS011;13482;48.234;13.006;2022-10-31T05:18:09;4.43;;;2.10;;
25615;SDS011;13482;48.234;13.006;2022-10-31T05:20:36;2.60;;;1.73;;
25615;SDS011;13482;48.234;13.006;2022-10-31T05:23:03;3.50;;;2.25;;
25615;SDS011;13482;48.234;13.006;2022-10-31T05:25:30;3.40;;;1.92;;
25615;SDS011;13482;48.234;13.006;2022-10-31T05:27:57;3.17;;;1.75;;
25615;SDS011;13482;48.234;13.006;2022-10-31T05:30:27;2.70;;;1.80;;
25615;SDS011;13482;48.234;13.006;2022-10-31T05:32:56;2.23;;;1.57;;
25615;SDS011;13482;48.234;13.006;2022-10-31T05:35:26;2.75;;;1.77;;
25615;SDS011;13482;48.234;13.006;2022-10-31T05:37:56;2.53;;;1.53;;
25615;SDS011;13482;48.234;13.006;2022-10-31T05:40:25;2.35;;;1.77;;
25615;SDS011;13482;48.234;13.006;2022-10-31T05:42:53;2.47;;;1.60;;
25615;SDS011;13482;48.234;13.006;2022-10-31T05:45:22;2.88;;;1.63;;
25615;SDS011;13482;48.234;13.006;2022-10-31T05:47:51;3.00;;;1.80;;
25615;SDS011;13482;48.234;13.006;2022-10-31T05:50:25;2.42;;;1.48;;
25615;SDS011;13482;48.234;13.006;2022-10-31T05:52:58;2.20;;;1.42;;
25615;SDS011;13482;48.234;13.006;2022-10-31T05:55:31;2.30;;;1.55;;
25615;SDS011;13482;48.234;13.006;2022-10-31T05:57:59;2.20;;;1.45;;
25615;SDS011;13482;48.234;13.006;2022-10-31T06:00:27;2.40;;;1.48;;
25615;SDS011;13482;48.234;13.006;2022-10-31T06:03:02;2.97;;;1.50;;
25615;SDS011;13482;48.234;13.006;2022-10-31T06:05:32;2.05;;;1.23;;
25615;SDS011;13482;48.234;13.006;2022-10-31T06:07:59;1.80;;;1.27;;
25615;SDS011;13482;48.234;13.006;2022-10-31T06:10:28;2.00;;;1.42;;
25615;SDS011;13482;48.234;13.006;2022-10-31T06:12:55;1.48;;;1.23;;
25615;SDS011;13482;48.234;13.006;2022-10-31T06:15:22;2.42;;;1.33;;
25615;SDS011;13482;48.234;13.006;2022-10-31T06:17:59;2.35;;;1.17;;
25615;SDS011;13482;48.234;13.006;2022-10-31T06:20:30;1.80;;;1.20;;
25615;SDS011;13482;48.234;13.006;2022-10-31T06:22:57;1.80;;;1.20;;
25615;SDS011;13482;48.234;13.006;2022-10-31T06:25:25;1.60;;;1.08;;
25615;SDS011;13482;48.234;13.006;2022-10-31T06:27:53;2.13;;;1.25;;
25615;SDS011;13482;48.234;13.006;2022-10-31T06:30:22;4.85;;;1.67;;
25615;SDS011;13482;48.234;13.006;2022-10-31T06:32:49;2.67;;;2.15;;
25615;SDS011;13482;48.234;13.006;2022-10-31T06:35:16;2.17;;;1.75;;
25615;SDS011;13482;48.234;13.006;2022-10-31T06:37:50;2.28;;;1.90;;
25615;SDS011;13482;48.234;13.006;2022-10-31T06:40:19;2.95;;;1.90;;
25615;SDS011;13482;48.234;13.006;2022-10-31T06:42:46;3.67;;;2.13;;
25615;SDS011;13482;48.234;13.006;2022-10-31T06:45:14;4.28;;;1.98;;
25615;SDS011;13482;48.234;13.006;2022-10-31T06:47:41;5.45;;;2.00;;
25615;SDS011;13482;48.234;13.006;2022-10-31T06:50:28;5.32;;;1.67;;
25615;SDS011;13482;48.234;13.006;2022-10-31T06:52:56;2.22;;;1.60;;
25615;SDS011;13482;48.234;13.006;2022-10-31T06:55:25;4.13;;;2.05;;
25615;SDS011;13482;48.234;13.006;2022-10-31T06:57:53;7.20;;;2.03;;
25615;SDS011;13482;48.234;13.006;2022-10-31T07:00:29;4.95;;;2.03;;
25615;SDS011;13482;48.234;13.006;2022-10-31T07:02:57;3.25;;;2.03;;
25615;SDS011;13482;48.234;13.006;2022-10-31T07:05:32;3.13;;;2.10;;
25615;SDS011;13482;48.234;13.006;2022-10-31T07:08:00;2.83;;;2.13;;
25615;SDS011;13482;48.234;13.006;2022-10-31T07:10:31;2.97;;;2.40;;
25615;SDS011;13482;48.234;13.006;2022-10-31T07:13:06;3.70;;;2.50;;
25615;SDS011;13482;48.234;13.006;2022-10-31T07:15:40;3.65;;;2.15;;
25615;SDS011;13482;48.234;13.006;2022-10-31T07:18:10;2.25;;;1.75;;
25615;SDS011;13482;48.234;13.006;2022-10-31T07:20:38;2.80;;;1.80;;
25615;SDS011;13482;48.234;13.006;2022-10-31T07:23:05;2.30;;;1.70;;
25615;SDS011;13482;48.234;13.006;2022-10-31T07:25:33;4.00;;;1.90;;
25615;SDS011;13482;48.234;13.006;2022-10-31T07:28:00;2.92;;;1.73;;
25615;SDS011;13482;48.234;13.006;2022-10-31T07:30:28;3.20;;;2.17;;
25615;SDS011;13482;48.234;13.006;2022-10-31T07:32:55;2.92;;;1.95;;
25615;SDS011;13482;48.234;13.006;2022-10-31T07:35:24;2.80;;;1.98;;
25615;SDS011;13482;48.234;13.006;2022-10-31T07:37:53;3.33;;;2.00;;
25615;SDS011;13482;48.234;13.006;2022-10-31T07:40:21;4.50;;;1.90;;
25615;SDS011;13482;48.234;13.006;2022-10-31T07:42:50;2.78;;;1.95;;
25615;SDS011;13482;48.234;13.006;2022-10-31T07:45:19;3.78;;;1.80;;
25615;SDS011;13482;48.234;13.006;2022-10-31T07:47:48;3.03;;;1.80;;
25615;SDS011;13482;48.234;13.006;2022-10-31T07:50:19;2.17;;;1.70;;
25615;SDS011;13482;48.234;13.006;2022-10-31T07:52:58;2.78;;;1.85;;
25615;SDS011;13482;48.234;13.006;2022-10-31T07:55:28;2.33;;;1.80;;
25615;SDS011;13482;48.234;13.006;2022-10-31T07:58:00;2.45;;;1.60;;
25615;SDS011;13482;48.234;13.006;2022-10-31T08:00:30;2.63;;;1.80;;
25615;SDS011;13482;48.234;13.006;2022-10-31T08:03:03;2.17;;;1.70;;
25615;SDS011;13482;48.234;13.006;2022-10-31T08:05:36;3.40;;;1.83;;
25615;SDS011;13482;48.234;13.006;2022-10-31T08:08:04;3.03;;;2.03;;
25615;SDS011;13482;48.234;13.006;2022-10-31T08:10:32;2.65;;;1.90;;
25615;SDS011;13482;48.234;13.006;2022-10-31T08:13:09;2.53;;;1.80;;
25615;SDS011;13482;48.234;13.006;2022-10-31T08:15:38;3.00;;;1.75;;
25615;SDS011;13482;48.234;13.006;2022-10-31T08:18:12;2.33;;;1.58;;
25615;SDS011;13482;48.234;13.006;2022-10-31T08:20:40;1.80;;;1.45;;
25615;SDS011;13482;48.234;13.006;2022-10-31T08:23:09;3.35;;;1.50;;
25615;SDS011;13482;48.234;13.006;2022-10-31T08:25:38;1.95;;;1.48;;
25615;SDS011;13482;48.234;13.006;2022-10-31T08:28:06;2.38;;;1.60;;
25615;SDS011;13482;48.234;13.006;2022-10-31T08:30:35;1.92;;;1.48;;
25615;SDS011;13482;48.234;13.006;2022-10-31T08:33:05;3.50;;;1.70;;
25615;SDS011;13482;48.234;13.006;2022-10-31T08:35:36;3.08;;;1.55;;
25615;SDS011;13482;48.234;13.006;2022-10-31T08:38:04;2.40;;;1.33;;
25615;SDS011;13482;48.234;13.006;2022-10-31T08:40:32;3.72;;;2.45;;
25615;SDS011;13482;48.234;13.006;2022-10-31T08:43:02;3.35;;;1.65;;
25615;SDS011;13482;48.234;13.006;2022-10-31T08:45:32;2.40;;;1.50;;
25615;SDS011;13482;48.234;13.006;2022-10-31T08:48:01;2.53;;;1.75;;
25615;SDS011;13482;48.234;13.006;2022-10-31T08:50:34;2.78;;;1.70;;
25615;SDS011;13482;48.234;13.006;2022-10-31T08:53:02;2.08;;;1.30;;
25615;SDS011;13482;48.234;13.006;2022-10-31T08:55:36;3.40;;;1.60;;
25615;SDS011;13482;48.234;13.006;2022-10-31T08:58:06;1.80;;;1.30;;
25615;SDS011;13482;48.234;13.006;2022-10-31T09:00:36;2.60;;;1.55;;
25615;SDS011;13482;48.234;13.006;2022-10-31T09:03:06;2.10;;;1.52;;
25615;SDS011;13482;48.234;13.006;2022-10-31T09:05:37;3.42;;;1.50;;
25615;SDS011;13482;48.234;13.006;2022-10-31T09:08:05;2.55;;;1.80;;
25615;SDS011;13482;48.234;13.006;2022-10-31T09:10:41;2.30;;;1.83;;
25615;SDS011;13482;48.234;13.006;2022-10-31T09:13:10;4.30;;;1.95;;
25615;SDS011;13482;48.234;13.006;2022-10-31T09:15:40;1.85;;;1.35;;
25615;SDS011;13482;48.234;13.006;2022-10-31T09:18:10;3.10;;;1.75;;
25615;SDS011;13482;48.234;13.006;2022-10-31T09:20:40;1.98;;;1.30;;
25615;SDS011;13482;48.234;13.006;2022-10-31T09:23:09;2.85;;;1.67;;
25615;SDS011;13482;48.234;13.006;2022-10-31T09:25:39;4.38;;;1.70;;
25615;SDS011;13482;48.234;13.006;2022-10-31T09:28:15;1.70;;;1.35;;
25615;SDS011;13482;48.234;13.006;2022-10-31T09:30:48;2.30;;;1.65;;
25615;SDS011;13482;48.234;13.006;2022-10-31T09:33:17;3.30;;;1.85;;
25615;SDS011;13482;48.234;13.006;2022-10-31T09:35:45;2.30;;;1.63;;
25615;SDS011;13482;48.234;13.006;2022-10-31T09:38:13;2.35;;;1.65;;
25615;SDS011;13482;48.234;13.006;2022-10-31T09:40:46;2.85;;;1.60;;
25615;SDS011;13482;48.234;13.006;2022-10-31T09:46:56;2.58;;;1.65;;
25615;SDS011;13482;48.234;13.006;2022-10-31T09:52:29;2.42;;;1.60;;
25615;SDS011;13482;48.234;13.006;2022-10-31T09:57:35;5.18;;;1.88;;
25615;SDS011;13482;48.234;13.006;2022-10-31T10:00:06;2.90;;;2.10;;
25615;SDS011;13482;48.234;13.006;2022-10-31T10:05:49;3.05;;;1.95;;
25615;SDS011;13482;48.234;13.006;2022-10-31T10:08:43;3.05;;;2.10;;
25615;SDS011;13482;48.234;13.006;2022-10-31T10:19:42;3.10;;;2.10;;
25615;SDS011;13482;48.234;13.006;2022-10-31T10:25:57;4.05;;;2.38;;
25615;SDS011;13482;48.234;13.006;2022-10-31T10:28:25;3.72;;;2.58;;
25615;SDS011;13482;48.234;13.006;2022-10-31T10:31:14;5.22;;;2.65;;
25615;SDS011;13482;48.234;13.006;2022-10-31T10:36:41;4.32;;;2.50;;
25615;SDS011;13482;48.234;13.006;2022-10-31T10:39:41;4.72;;;2.92;;
25615;SDS011;13482;48.234;13.006;2022-10-31T10:42:14;3.75;;;2.83;;
25615;SDS011;13482;48.234;13.006;2022-10-31T10:45:13;3.38;;;2.53;;
25615;SDS011;13482;48.234;13.006;2022-10-31T10:48:22;3.95;;;2.65;;
25615;SDS011;13482;48.234;13.006;2022-10-31T10:51:06;4.47;;;2.60;;
25615;SDS011;13482;48.234;13.006;2022-10-31T10:54:29;5.15;;;3.05;;
25615;SDS011;13482;48.234;13.006;2022-10-31T10:59:45;5.60;;;2.88;;
25615;SDS011;13482;48.234;13.006;2022-10-31T11:02:20;6.45;;;3.30;;
25615;SDS011;13482;48.234;13.006;2022-10-31T11:04:53;3.90;;;3.35;;
25615;SDS011;13482;48.234;13.006;2022-10-31T11:07:23;3.92;;;3.00;;
25615;SDS011;13482;48.234;13.006;2022-10-31T11:09:50;5.63;;;3.70;;
25615;SDS011;13482;48.234;13.006;2022-10-31T11:12:21;4.05;;;3.13;;
25615;SDS011;13482;48.234;13.006;2022-10-31T11:14:57;4.80;;;3.65;;
25615;SDS011;13482;48.234;13.006;2022-10-31T11:17:30;5.80;;;3.35;;
25615;SDS011;13482;48.234;13.006;2022-10-31T11:22:44;5.63;;;3.38;;
25615;SDS011;13482;48.234;13.006;2022-10-31T11:25:20;5.07;;;3.40;;
25615;SDS011;13482;48.234;13.006;2022-10-31T11:28:02;5.03;;;3.42;;
25615;SDS011;13482;48.234;13.006;2022-10-31T11:30:42;4.75;;;3.70;;
25615;SDS011;13482;48.234;13.006;2022-10-31T11:35:58;5.00;;;3.78;;
25615;SDS011;13482;48.234;13.006;2022-10-31T11:38:32;5.25;;;3.67;;
25615;SDS011;13482;48.234;13.006;2022-10-31T11:41:11;5.93;;;3.95;;
25615;SDS011;13482;48.234;13.006;2022-10-31T11:44:20;7.10;;;3.85;;
25615;SDS011;13482;48.234;13.006;2022-10-31T11:46:58;6.72;;;3.70;;
25615;SDS011;13482;48.234;13.006;2022-10-31T11:49:46;8.05;;;3.97;;
25615;SDS011;13482;48.234;13.006;2022-10-31T11:52:23;5.07;;;3.80;;
25615;SDS011;13482;48.234;13.006;2022-10-31T11:54:55;7.28;;;3.75;;
25615;SDS011;13482;48.234;13.006;2022-10-31T11:57:44;6.22;;;4.03;;
25615;SDS011;13482;48.234;13.006;2022-10-31T12:00:24;5.97;;;4.03;;
25615;SDS011;13482;48.234;13.006;2022-10-31T12:05:55;4.60;;;3.38;;
25615;SDS011;13482;48.234;13.006;2022-10-31T12:08:38;5.40;;;3.88;;
25615;SDS011;13482;48.234;13.006;2022-10-31T12:22:43;8.15;;;4.18;;
25615;SDS011;13482;48.234;13.006;2022-10-31T12:25:50;5.28;;;3.85;;
25615;SDS011;13482;48.234;13.006;2022-10-31T12:29:07;6.55;;;3.95;;
25615;SDS011;13482;48.234;13.006;2022-10-31T12:35:25;8.27;;;4.40;;
25615;SDS011;13482;48.234;13.006;2022-10-31T12:46:25;6.90;;;4.07;;
25615;SDS011;13482;48.234;13.006;2022-10-31T12:49:25;5.80;;;3.90;;
25615;SDS011;13482;48.234;13.006;2022-10-31T12:52:42;5.47;;;3.75;;
25615;SDS011;13482;48.234;13.006;2022-10-31T12:58:36;4.88;;;3.67;;
25615;SDS011;13482;48.234;13.006;2022-10-31T13:01:25;4.72;;;3.88;;
25615;SDS011;13482;48.234;13.006;2022-10-31T13:06:40;5.50;;;3.65;;
25615;SDS011;13482;48.234;13.006;2022-10-31T13:09:20;4.78;;;3.72;;
25615;SDS011;13482;48.234;13.006;2022-10-31T13:12:12;5.80;;;4.13;;
25615;SDS011;13482;48.234;13.006;2022-10-31T13:14:47;5.38;;;3.88;;
25615;SDS011;13482;48.234;13.006;2022-10-31T13:20:44;5.60;;;3.50;;
25615;SDS011;13482;48.234;13.006;2022-10-31T13:26:20;5.78;;;3.13;;
25615;SDS011;13482;48.234;13.006;2022-10-31T13:29:02;5.60;;;3.63;;
25615;SDS011;13482;48.234;13.006;2022-10-31T13:31:47;5.50;;;3.88;;
25615;SDS011;13482;48.234;13.006;2022-10-31T13:34:25;5.47;;;3.78;;
25615;SDS011;13482;48.234;13.006;2022-10-31T13:36:58;4.63;;;3.30;;
25615;SDS011;13482;48.234;13.006;2022-10-31T13:39:49;3.85;;;3.08;;
25615;SDS011;13482;48.234;13.006;2022-10-31T13:45:53;5.60;;;3.55;;
25615;SDS011;13482;48.234;13.006;2022-10-31T13:50:58;4.97;;;3.58;;
25615;SDS011;13482;48.234;13.006;2022-10-31T13:53:37;5.18;;;3.88;;
25615;SDS011;13482;48.234;13.006;2022-10-31T13:56:13;4.53;;;3.50;;
25615;SDS011;13482;48.234;13.006;2022-10-31T13:58:58;5.03;;;3.50;;
25615;SDS011;13482;48.234;13.006;2022-10-31T14:01:36;4.25;;;3.08;;
25615;SDS011;13482;48.234;13.006;2022-10-31T14:04:23;4.72;;;3.28;;
25615;SDS011;13482;48.234;13.006;2022-10-31T14:07:13;6.20;;;3.83;;
25615;SDS011;13482;48.234;13.006;2022-10-31T14:12:49;5.35;;;3.83;;
25615;SDS011;13482;48.234;13.006;2022-10-31T14:15:20;4.80;;;3.95;;
25615;SDS011;13482;48.234;13.006;2022-10-31T14:17:52;4.95;;;3.40;;
25615;SDS011;13482;48.234;13.006;2022-10-31T14:20:26;4.63;;;3.60;;
25615;SDS011;13482;48.234;13.006;2022-10-31T14:29:41;6.18;;;4.30;;
25615;SDS011;13482;48.234;13.006;2022-10-31T14:50:56;5.00;;;3.65;;
25615;SDS011;13482;48.234;13.006;2022-10-31T14:53:30;5.35;;;3.60;;
25615;SDS011;13482;48.234;13.006;2022-10-31T14:56:01;6.43;;;3.80;;
25615;SDS011;13482;48.234;13.006;2022-10-31T15:01:02;6.85;;;4.53;;
25615;SDS011;13482;48.234;13.006;2022-10-31T15:03:32;5.50;;;4.38;;
25615;SDS011;13482;48.234;13.006;2022-10-31T15:06:11;6.90;;;4.22;;
25615;SDS011;13482;48.234;13.006;2022-10-31T15:08:51;5.40;;;3.83;;
25615;SDS011;13482;48.234;13.006;2022-10-31T15:11:25;4.70;;;3.70;;
25615;SDS011;13482;48.234;13.006;2022-10-31T15:13:54;5.05;;;3.63;;
25615;SDS011;13482;48.234;13.006;2022-10-31T15:16:25;6.45;;;4.03;;
25615;SDS011;13482;48.234;13.006;2022-10-31T15:19:03;6.35;;;3.90;;
25615;SDS011;13482;48.234;13.006;2022-10-31T15:21:34;5.77;;;4.10;;
25615;SDS011;13482;48.234;13.006;2022-10-31T15:24:15;6.88;;;3.90;;
25615;SDS011;13482;48.234;13.006;2022-10-31T15:26:46;4.82;;;3.60;;
25615;SDS011;13482;48.234;13.006;2022-10-31T15:29:18;5.82;;;3.80;;
25615;SDS011;13482;48.234;13.006;2022-10-31T15:31:52;5.07;;;4.07;;
25615;SDS011;13482;48.234;13.006;2022-10-31T15:34:26;5.80;;;3.95;;
25615;SDS011;13482;48.234;13.006;2022-10-31T15:36:57;5.63;;;3.92;;
25615;SDS011;13482;48.234;13.006;2022-10-31T15:39:24;4.53;;;3.72;;
25615;SDS011;13482;48.234;13.006;2022-10-31T15:41:55;6.10;;;4.53;;
25615;SDS011;13482;48.234;13.006;2022-10-31T15:44:33;8.32;;;4.65;;
25615;SDS011;13482;48.234;13.006;2022-10-31T15:47:03;6.05;;;4.57;;
25615;SDS011;13482;48.234;13.006;2022-10-31T15:49:47;6.45;;;4.38;;
25615;SDS011;13482;48.234;13.006;2022-10-31T15:57:40;7.63;;;5.00;;
25615;SDS011;13482;48.234;13.006;2022-10-31T16:02:48;9.77;;;6.05;;
25615;SDS011;13482;48.234;13.006;2022-10-31T16:05:17;8.55;;;5.57;;
25615;SDS011;13482;48.234;13.006;2022-10-31T16:07:49;7.43;;;5.47;;
25615;SDS011;13482;48.234;13.006;2022-10-31T16:10:25;7.70;;;5.40;;
25615;SDS011;13482;48.234;13.006;2022-10-31T16:12:53;8.32;;;5.68;;
25615;SDS011;13482;48.234;13.006;2022-10-31T16:15:20;8.05;;;5.47;;
25615;SDS011;13482;48.234;13.006;2022-10-31T16:17:49;8.82;;;5.50;;
25615;SDS011;13482;48.234;13.006;2022-10-31T16:20:29;9.52;;;7.40;;
25615;SDS011;13482;48.234;13.006;2022-10-31T16:23:03;10.23;;;7.93;;
25615;SDS011;13482;48.234;13.006;2022-10-31T16:25:35;12.15;;;7.63;;
25615;SDS011;13482;48.234;13.006;2022-10-31T16:28:05;10.07;;;7.80;;
25615;SDS011;13482;48.234;13.006;2022-10-31T16:30:56;8.63;;;6.47;;
25615;SDS011;13482;48.234;13.006;2022-10-31T16:33:31;8.68;;;6.43;;
25615;SDS011;13482;48.234;13.006;2022-10-31T16:39:01;15.05;;;10.15;;
25615;SDS011;13482;48.234;13.006;2022-10-31T16:41:29;12.70;;;6.82;;
25615;SDS011;13482;48.234;13.006;2022-10-31T16:43:56;11.13;;;7.82;;
25615;SDS011;13482;48.234;13.006;2022-10-31T16:46:25;15.50;;;10.20;;
25615;SDS011;13482;48.234;13.006;2022-10-31T16:48:53;11.82;;;8.45;;
25615;SDS011;13482;48.234;13.006;2022-10-31T16:51:21;9.88;;;7.63;;
25615;SDS011;13482;48.234;13.006;2022-10-31T16:53:50;11.27;;;8.00;;
25615;SDS011;13482;48.234;13.006;2022-10-31T16:56:37;8.95;;;6.60;;
25615;SDS011;13482;48.234;13.006;2022-10-31T16:59:06;9.82;;;6.93;;
25615;SDS011;13482;48.234;13.006;2022-10-31T17:01:41;10.85;;;7.20;;
25615;SDS011;13482;48.234;13.006;2022-10-31T17:04:14;8.10;;;6.63;;
25615;SDS011;13482;48.234;13.006;2022-10-31T17:06:41;10.63;;;6.13;;
25615;SDS011;13482;48.234;13.006;2022-10-31T17:09:09;7.22;;;5.30;;
25615;SDS011;13482;48.234;13.006;2022-10-31T17:11:36;8.68;;;6.13;;
25615;SDS011;13482;48.234;13.006;2022-10-31T17:14:15;8.15;;;5.00;;
25615;SDS011;13482;48.234;13.006;2022-10-31T17:16:44;8.65;;;5.25;;
25615;SDS011;13482;48.234;13.006;2022-10-31T17:19:11;7.18;;;4.90;;
25615;SDS011;13482;48.234;13.006;2022-10-31T17:21:38;7.32;;;5.63;;
25615;SDS011;13482;48.234;13.006;2022-10-31T17:24:08;8.07;;;5.35;;
25615;SDS011;13482;48.234;13.006;2022-10-31T17:26:39;7.53;;;5.65;;
25615;SDS011;13482;48.234;13.006;2022-10-31T17:29:07;9.23;;;5.32;;
25615;SDS011;13482;48.234;13.006;2022-10-31T17:31:34;7.72;;;5.82;;
25615;SDS011;13482;48.234;13.006;2022-10-31T17:34:04;8.25;;;5.50;;
25615;SDS011;13482;48.234;13.006;2022-10-31T17:36:33;8.23;;;5.55;;
25615;SDS011;13482;48.234;13.006;2022-10-31T17:39:01;8.45;;;5.15;;
25615;SDS011;13482;48.234;13.006;2022-10-31T17:41:32;8.80;;;5.33;;
25615;SDS011;13482;48.234;13.006;2022-10-31T17:44:00;8.27;;;5.47;;
25615;SDS011;13482;48.234;13.006;2022-10-31T17:46:27;9.32;;;5.38;;
25615;SDS011;13482;48.234;13.006;2022-10-31T17:48:54;7.90;;;5.82;;
25615;SDS011;13482;48.234;13.006;2022-10-31T17:51:21;7.18;;;5.05;;
25615;SDS011;13482;48.234;13.006;2022-10-31T17:53:49;7.07;;;5.60;;
25615;SDS011;13482;48.234;13.006;2022-10-31T17:56:16;8.32;;;6.07;;